createdAt,value
2018-07-03T00:00:07.599Z,100912.60
2018-07-03T00:02:36.589Z,100907.78
2018-07-03T00:05:09.491Z,100909.03
2018-07-03T00:07:38.734Z,100907.02
2018-07-03T00:10:10.331Z,100915.69
2018-07-03T00:12:40.148Z,100913.09
2018-07-03T00:15:09.448Z,100913.05
2018-07-03T00:17:43.202Z,100906.08
2018-07-03T00:20:12.598Z,100913.58
2018-07-03T00:22:42.617Z,100912.29
2018-07-03T00:25:11.745Z,100910.73
2018-07-03T00:27:40.818Z,100912.80
2018-07-03T00:30:09.770Z,100908.81
2018-07-03T00:32:39.270Z,100903.61
2018-07-03T00:35:08.333Z,100909.49
2018-07-03T00:37:37.293Z,100907.53
2018-07-03T00:40:06.555Z,100892.81
2018-07-03T00:42:35.479Z,100907.34
2018-07-03T00:45:07.911Z,100913.45
2018-07-03T00:47:37.463Z,100900.36
2018-07-03T00:50:06.722Z,100907.32
2018-07-03T00:52:35.774Z,100908.61
2018-07-03T00:55:08.602Z,100915.20
2018-07-03T00:57:37.863Z,100904.66
2018-07-03T01:00:18.088Z,100907.38
2018-07-03T01:02:47.090Z,100901.36
2018-07-03T01:05:16.107Z,100896.88
2018-07-03T01:07:45.292Z,100901.26
2018-07-03T01:10:14.662Z,100895.05
2018-07-03T01:12:43.972Z,100893.31
2018-07-03T01:15:13.211Z,100894.44
2018-07-03T01:17:42.335Z,100895.50
2018-07-03T01:20:11.602Z,100895.70
2018-07-03T01:22:40.879Z,100894.88
2018-07-03T01:25:10.055Z,100895.78
2018-07-03T01:27:39.286Z,100899.31
2018-07-03T01:30:08.663Z,100899.20
2018-07-03T01:32:38.244Z,100901.05
2018-07-03T01:35:07.315Z,100899.52
2018-07-03T01:37:36.249Z,100897.72
2018-07-03T01:40:05.250Z,100902.20
2018-07-03T01:42:34.170Z,100908.73
2018-07-03T01:45:06.947Z,100902.91
2018-07-03T01:47:36.445Z,100898.95
2018-07-03T01:50:05.384Z,100889.97
2018-07-03T01:52:34.442Z,100897.02
2018-07-03T01:55:07.773Z,100905.02
2018-07-03T01:57:36.676Z,100901.64
2018-07-03T02:00:05.987Z,100903.00
2018-07-03T02:02:34.898Z,100906.02
2018-07-03T02:05:07.135Z,100900.50
2018-07-03T02:07:36.050Z,100895.50
2018-07-03T02:10:05.121Z,100895.16
2018-07-03T02:12:34.063Z,100893.80
2018-07-03T02:15:06.222Z,100892.31
2018-07-03T02:17:35.304Z,100897.30
2018-07-03T02:20:04.483Z,100888.30
2018-07-03T02:22:33.500Z,100897.16
2018-07-03T02:25:05.658Z,100892.32
2018-07-03T02:27:34.866Z,100891.97
2018-07-03T02:30:03.902Z,100869.56
2018-07-03T02:32:32.819Z,100882.27
2018-07-03T02:35:05.424Z,100883.43
2018-07-03T02:37:34.381Z,100888.97
2018-07-03T02:40:03.372Z,100881.61
2018-07-03T02:42:32.350Z,100877.60
2018-07-03T02:45:04.553Z,100880.93
2018-07-03T02:47:34.072Z,100883.75
2018-07-03T02:50:03.244Z,100883.74
2018-07-03T02:52:32.479Z,100878.73
2018-07-03T02:55:04.831Z,100873.03
2018-07-03T02:57:34.057Z,100875.38
2018-07-03T03:00:03.614Z,100879.06
2018-07-03T03:02:32.850Z,100881.07
2018-07-03T03:05:05.871Z,100884.25
2018-07-03T03:07:35.308Z,100884.26
2018-07-03T03:10:04.736Z,100878.10
2018-07-03T03:12:33.788Z,100878.93
2018-07-03T03:15:08.019Z,100875.73
2018-07-03T03:17:37.140Z,100882.39
2018-07-03T03:20:06.091Z,100881.56
2018-07-03T03:22:35.093Z,100890.61
2018-07-03T03:25:07.284Z,100889.30
2018-07-03T03:27:36.287Z,100892.77
2018-07-03T03:30:05.551Z,100890.56
2018-07-03T03:32:34.565Z,100886.20
2018-07-03T03:35:08.984Z,100894.16
2018-07-03T03:37:39.019Z,100896.20
2018-07-03T03:40:08.283Z,100899.19
2018-07-03T03:42:37.328Z,100903.11
2018-07-03T03:45:06.937Z,100915.27
2018-07-03T03:47:36.355Z,100909.91
2018-07-03T03:50:05.627Z,100903.86
2018-07-03T03:52:35.415Z,100912.76
2018-07-03T03:55:07.744Z,100910.26
2018-07-03T03:57:36.710Z,100912.44
2018-07-03T04:00:06.980Z,100913.61
2018-07-03T04:02:35.940Z,100912.48
2018-07-03T04:05:08.504Z,100913.34
2018-07-03T04:07:37.584Z,100915.70
2018-07-03T04:10:06.796Z,100923.86
2018-07-03T04:12:35.797Z,100926.02
2018-07-03T04:15:08.852Z,100925.52
2018-07-03T04:17:38.440Z,100925.41
2018-07-03T04:20:08.299Z,100924.41
2018-07-03T04:22:37.938Z,100928.42
2018-07-03T04:25:08.411Z,100920.05
2018-07-03T04:27:37.551Z,100924.08
2018-07-03T04:30:06.580Z,100919.56
2018-07-03T04:32:35.715Z,100925.59
2018-07-03T04:35:08.184Z,100927.93
2018-07-03T04:37:38.168Z,100935.05
2018-07-03T04:40:07.206Z,100934.94
2018-07-03T04:42:36.518Z,100932.77
2018-07-03T04:45:08.756Z,100928.75
2018-07-03T04:47:37.870Z,100934.59
2018-07-03T04:50:06.777Z,100939.75
2018-07-03T04:52:36.634Z,100940.70
2018-07-03T04:55:07.284Z,100936.84
2018-07-03T04:57:36.246Z,100928.65
2018-07-03T05:00:05.485Z,100937.22
2018-07-03T05:02:34.447Z,100934.66
2018-07-03T05:05:07.468Z,100930.89
2018-07-03T05:07:36.571Z,100935.59
2018-07-03T05:10:05.732Z,100926.81
2018-07-03T05:12:34.747Z,100927.59
2018-07-03T05:15:07.140Z,100928.94
2018-07-03T05:17:37.052Z,100935.98
2018-07-03T05:20:06.331Z,100938.62
2018-07-03T05:22:35.904Z,100941.84
2018-07-03T05:25:07.955Z,100951.38
2018-07-03T05:27:37.218Z,100953.19
2018-07-03T05:30:07.088Z,100956.52
2018-07-03T05:32:37.675Z,100963.14
2018-07-03T05:35:07.310Z,100962.03
2018-07-03T05:37:36.642Z,100962.20
2018-07-03T05:40:06.199Z,100963.11
2018-07-03T05:42:35.585Z,100967.20
2018-07-03T05:45:07.965Z,100965.10
2018-07-03T05:47:37.669Z,100964.20
2018-07-03T05:50:06.958Z,100960.84
2018-07-03T05:52:37.333Z,100966.54
2018-07-03T05:55:07.405Z,100963.63
2018-07-03T05:57:37.861Z,100977.59
2018-07-03T06:00:07.561Z,100971.59
2018-07-03T06:02:36.870Z,100972.14
2018-07-03T06:05:07.944Z,100969.75
2018-07-03T06:07:37.717Z,100970.53
2018-07-03T06:10:07.013Z,100977.61
2018-07-03T06:12:36.259Z,100970.42
2018-07-03T06:15:08.468Z,100964.58
2018-07-03T06:17:37.778Z,100978.84
2018-07-03T06:20:08.439Z,100979.98
2018-07-03T06:22:37.604Z,100987.23
2018-07-03T06:25:08.078Z,100982.18
2018-07-03T06:27:37.333Z,100981.84
2018-07-03T06:30:06.627Z,100987.91
2018-07-03T06:32:35.627Z,100986.94
2018-07-03T06:35:08.397Z,100990.37
2018-07-03T06:37:37.466Z,100980.00
2018-07-03T06:40:06.593Z,100982.39
2018-07-03T06:42:35.784Z,100977.78
2018-07-03T06:45:07.974Z,100976.65
2018-07-03T06:47:37.996Z,100976.20
2018-07-03T06:50:07.671Z,100982.59
2018-07-03T06:52:37.754Z,100984.62
2018-07-03T06:55:08.436Z,100982.27
2018-07-03T06:57:37.608Z,100979.45
2018-07-03T07:00:07.080Z,100978.16
2018-07-03T07:02:36.467Z,100971.74
2018-07-03T07:05:09.419Z,100975.31
2018-07-03T07:07:38.704Z,100959.39
2018-07-03T07:10:08.887Z,100959.83
2018-07-03T07:12:38.470Z,100963.16
2018-07-03T07:15:08.346Z,100958.94
2018-07-03T07:17:37.607Z,100947.60
2018-07-03T07:20:08.147Z,100952.32
2018-07-03T07:22:37.277Z,100948.48
2018-07-03T07:25:07.955Z,100950.38
2018-07-03T07:27:38.025Z,100953.00
2018-07-03T07:30:07.410Z,100954.28
2018-07-03T07:32:37.251Z,100954.73
2018-07-03T07:35:07.812Z,100941.77
2018-07-03T07:37:36.885Z,100938.34
2018-07-03T07:40:06.416Z,100929.66
2018-07-03T07:42:35.474Z,100927.39
2018-07-03T07:45:08.634Z,100928.16
2018-07-03T07:47:41.887Z,100928.73
2018-07-03T07:50:11.130Z,100931.69
2018-07-03T07:52:40.463Z,100941.13
2018-07-03T07:55:09.604Z,100935.61
2018-07-03T07:57:39.724Z,100935.88
2018-07-03T08:00:08.991Z,100931.02
2018-07-03T08:02:38.065Z,100917.16
2018-07-03T08:05:08.193Z,100929.96
2018-07-03T08:07:37.290Z,100936.66
2018-07-03T08:10:06.700Z,100931.44
2018-07-03T08:12:36.068Z,100934.95
2018-07-03T08:15:08.562Z,100927.55
2018-07-03T08:17:37.647Z,100926.33
2018-07-03T08:20:06.631Z,100930.72
2018-07-03T08:22:35.876Z,100923.73
2018-07-03T08:25:08.845Z,100929.77
2018-07-03T08:27:37.972Z,100930.58
2018-07-03T08:30:07.970Z,100931.09
2018-07-03T08:32:36.968Z,100933.84
2018-07-03T08:35:07.819Z,100926.81
2018-07-03T08:37:37.267Z,100922.30
2018-07-03T08:40:07.319Z,100923.83
2018-07-03T08:42:37.003Z,100919.65
2018-07-03T08:45:08.683Z,100924.47
2018-07-03T08:47:38.123Z,100922.94
2018-07-03T08:50:07.316Z,100921.59
2018-07-03T08:52:36.547Z,100912.98
2018-07-03T08:55:07.789Z,100915.75
2018-07-03T08:57:36.916Z,100920.42
2018-07-03T09:00:07.390Z,100912.08
2018-07-03T09:02:36.515Z,100916.48
2018-07-03T09:05:08.855Z,100916.08
2018-07-03T09:07:38.178Z,100910.47
2018-07-03T09:10:07.843Z,100911.98
2018-07-03T09:12:36.979Z,100912.22
2018-07-03T09:15:09.792Z,100913.91
2018-07-03T09:17:39.070Z,100906.95
2018-07-03T09:20:08.997Z,100908.22
2018-07-03T09:22:38.098Z,100906.38
2018-07-03T09:25:07.903Z,100906.88
2018-07-03T09:27:37.607Z,100907.58
2018-07-03T09:30:08.067Z,100903.16
2018-07-03T09:32:37.027Z,100903.22
2018-07-03T09:35:07.811Z,100888.70
2018-07-03T09:37:36.755Z,100891.12
2018-07-03T09:40:06.603Z,100893.73
2018-07-03T09:42:35.768Z,100889.00
2018-07-03T09:45:08.964Z,100883.22
2018-07-03T09:47:38.053Z,100878.17
2018-07-03T09:50:07.399Z,100884.66
2018-07-03T09:52:37.248Z,100885.54
2018-07-03T09:55:07.993Z,100882.24
2018-07-03T09:57:37.204Z,100880.31
2018-07-03T10:00:07.147Z,100875.77
2018-07-03T10:02:36.414Z,100872.56
2018-07-03T10:05:07.802Z,100872.63
2018-07-03T10:07:36.855Z,100878.25
2018-07-03T10:10:05.814Z,100878.56
2018-07-03T10:12:34.875Z,100877.12
2018-07-03T10:15:09.831Z,100877.09
2018-07-03T10:17:39.112Z,100875.41
2018-07-03T10:20:08.408Z,100875.02
2018-07-03T10:22:37.482Z,100877.14
2018-07-03T10:25:06.784Z,100879.67
2018-07-03T10:27:36.176Z,100879.64
2018-07-03T10:30:06.071Z,100878.95
2018-07-03T10:32:35.208Z,100875.62
2018-07-03T10:35:07.052Z,100869.35
2018-07-03T10:37:36.138Z,100871.19
2018-07-03T10:40:06.085Z,100868.76
2018-07-03T10:42:35.545Z,100873.33
2018-07-03T10:45:08.140Z,100870.59
2018-07-03T10:47:37.247Z,100878.38
2018-07-03T10:50:06.215Z,100867.68
2018-07-03T10:52:36.039Z,100871.63
2018-07-03T10:55:08.495Z,100864.68
2018-07-03T10:57:37.798Z,100863.86
2018-07-03T11:00:07.799Z,100850.81
2018-07-03T11:02:37.243Z,100851.68
2018-07-03T11:05:07.512Z,100852.69
2018-07-03T11:07:37.008Z,100856.58
2018-07-03T11:10:06.309Z,100860.09
2018-07-03T11:12:35.375Z,100855.34
2018-07-03T11:15:08.448Z,100849.63
2018-07-03T11:17:37.426Z,100850.70
2018-07-03T11:20:07.464Z,100853.24
2018-07-03T11:22:36.939Z,100851.56
2018-07-03T11:25:07.555Z,100841.89
2018-07-03T11:27:36.857Z,100836.11
2018-07-03T11:30:06.724Z,100841.63
2018-07-03T11:32:35.787Z,100841.80
2018-07-03T11:35:08.327Z,100838.50
2018-07-03T11:37:37.655Z,100836.22
2018-07-03T11:40:07.251Z,100832.73
2018-07-03T11:42:36.416Z,100840.66
2018-07-03T11:45:08.767Z,100836.64
2018-07-03T11:47:38.535Z,100828.36
2018-07-03T11:50:08.102Z,100826.82
2018-07-03T11:52:37.943Z,100825.61
2018-07-03T11:55:07.531Z,100820.76
2018-07-03T11:57:36.930Z,100829.15
2018-07-03T12:00:06.549Z,100821.28
2018-07-03T12:02:35.959Z,100821.77
2018-07-03T12:05:09.152Z,100822.53
2018-07-03T12:07:38.496Z,100821.87
2018-07-03T12:10:07.615Z,100815.81
2018-07-03T12:12:36.907Z,100814.17
2018-07-03T12:15:07.560Z,100817.72
2018-07-03T12:17:36.818Z,100813.14
2018-07-03T12:20:07.008Z,100807.39
2018-07-03T12:22:36.287Z,100806.44
2018-07-03T12:25:09.153Z,100806.07
2018-07-03T12:27:38.349Z,100802.33
2018-07-03T12:30:10.940Z,100796.98
2018-07-03T12:32:40.451Z,100796.83
2018-07-03T12:35:10.286Z,100794.50
2018-07-03T12:37:40.488Z,100797.77
2018-07-03T12:40:09.735Z,100796.74
2018-07-03T12:42:38.683Z,100792.00
2018-07-03T12:45:08.148Z,100795.72
2018-07-03T12:47:37.527Z,100795.92
2018-07-03T12:50:06.626Z,100793.98
2018-07-03T12:52:35.587Z,100786.88
2018-07-03T12:55:08.400Z,100773.42
2018-07-03T12:57:37.343Z,100788.45
2018-07-03T13:00:07.170Z,100786.27
2018-07-03T13:02:36.305Z,100779.75
2018-07-03T13:05:07.078Z,100782.06
2018-07-03T13:07:36.741Z,100775.97
2018-07-03T13:10:05.922Z,100776.89
2018-07-03T13:12:35.183Z,100780.86
2018-07-03T13:15:07.378Z,100778.80
2018-07-03T13:17:36.787Z,100772.94
2018-07-03T13:20:06.760Z,100770.42
2018-07-03T13:22:36.083Z,100767.43
2018-07-03T13:25:09.579Z,100775.44
2018-07-03T13:27:38.619Z,100763.11
2018-07-03T13:30:08.758Z,100768.63
2018-07-03T13:32:37.974Z,100764.20
2018-07-03T13:35:08.709Z,100758.45
2018-07-03T13:37:38.059Z,100754.82
2018-07-03T13:40:08.787Z,100762.47
2018-07-03T13:42:37.740Z,100758.28
2018-07-03T13:45:08.269Z,100757.73
2018-07-03T13:47:37.298Z,100753.53
2018-07-03T13:50:06.351Z,100759.39
2018-07-03T13:52:35.290Z,100755.79
2018-07-03T13:55:07.872Z,100741.67
2018-07-03T13:57:36.813Z,100750.50
2018-07-03T14:00:06.423Z,100745.33
2018-07-03T14:02:35.391Z,100740.68
2018-07-03T14:05:08.296Z,100734.64
2018-07-03T14:07:37.552Z,100740.46
2018-07-03T14:10:06.663Z,100737.29
2018-07-03T14:12:35.792Z,100731.09
2018-07-03T14:15:10.196Z,100729.24
2018-07-03T14:17:39.270Z,100730.48
2018-07-03T14:20:08.227Z,100727.45
2018-07-03T14:22:37.210Z,100574.04
2018-07-03T14:25:08.320Z,100733.31
2018-07-03T14:27:37.295Z,100725.41
2018-07-03T14:30:06.538Z,100740.66
2018-07-03T14:32:35.807Z,100731.50
2018-07-03T14:35:08.671Z,100727.20
2018-07-03T14:37:38.690Z,100720.99
2018-07-03T14:40:07.742Z,100730.79
2018-07-03T14:42:37.053Z,100725.90
2018-07-03T14:45:07.764Z,100724.33
2018-07-03T14:47:37.064Z,100721.55
2018-07-03T14:50:06.240Z,100710.88
2018-07-03T14:52:35.509Z,100718.98
2018-07-03T14:55:09.064Z,100717.66
2018-07-03T14:57:38.087Z,100716.27
2018-07-03T15:00:07.485Z,100707.06
2018-07-03T15:02:36.544Z,100708.48
2018-07-03T15:05:09.358Z,100712.59
2018-07-03T15:07:39.138Z,100711.55
2018-07-03T15:10:08.202Z,100711.86
2018-07-03T15:12:37.516Z,100702.29
2018-07-03T15:15:08.462Z,100700.34
2018-07-03T15:17:37.722Z,100703.89
2018-07-03T15:20:06.730Z,100695.60
2018-07-03T15:22:35.796Z,100702.17
2018-07-03T15:25:08.354Z,100694.94
2018-07-03T15:27:37.314Z,100697.65
2018-07-03T15:30:06.820Z,100698.58
2018-07-03T15:32:35.837Z,100693.03
2018-07-03T15:35:07.570Z,100691.92
2018-07-03T15:37:36.779Z,100688.17
2018-07-03T15:40:05.813Z,100678.59
2018-07-03T15:42:34.853Z,100682.14
2018-07-03T15:45:12.881Z,100682.70
2018-07-03T15:47:41.958Z,100678.89
2018-07-03T15:50:11.971Z,100681.22
2018-07-03T15:52:40.943Z,100679.41
2018-07-03T15:55:11.040Z,100668.75
2018-07-03T15:57:40.043Z,100674.38
2018-07-03T16:00:11.124Z,100675.53
2018-07-03T16:02:50.535Z,100672.78
2018-07-03T16:05:30.907Z,100635.19
2018-07-03T16:08:30.198Z,100669.19
2018-07-03T16:10:59.467Z,100662.81
2018-07-03T16:13:29.036Z,100667.55
2018-07-03T16:15:58.467Z,100661.86
2018-07-03T16:18:28.052Z,100664.30
2018-07-03T16:20:58.481Z,100650.09
2018-07-03T16:23:27.891Z,100655.22
2018-07-03T16:26:01.627Z,100650.64
2018-07-03T16:28:31.030Z,100651.00
2018-07-03T16:31:00.495Z,100651.58
2018-07-03T16:33:29.743Z,100643.16
2018-07-03T16:35:59.451Z,100646.18
2018-07-03T16:38:28.702Z,100645.07
2018-07-03T16:40:57.731Z,100645.05
2018-07-03T16:43:26.690Z,100636.73
2018-07-03T16:46:00.874Z,100639.02
2018-07-03T16:48:29.982Z,100635.32
2018-07-03T16:50:59.086Z,100638.33
2018-07-03T16:53:28.119Z,100636.38
2018-07-03T16:55:57.935Z,100630.45
2018-07-03T16:58:26.887Z,100646.86
2018-07-03T17:00:55.855Z,100642.41
2018-07-03T17:03:24.938Z,100642.97
2018-07-03T17:05:54.518Z,100635.58
2018-07-03T17:08:23.498Z,100634.72
2018-07-03T17:10:52.439Z,100637.17
2018-07-03T17:13:21.479Z,100633.95
2018-07-03T17:15:50.997Z,100630.17
2018-07-03T17:18:20.222Z,100635.91
2018-07-03T17:20:49.304Z,100637.16
2018-07-03T17:23:18.402Z,100633.52
2018-07-03T17:25:47.423Z,100629.28
2018-07-03T17:28:16.480Z,100629.75
2018-07-03T17:30:45.864Z,100622.88
2018-07-03T17:33:15.310Z,100621.42
2018-07-03T17:35:44.435Z,100616.16
2018-07-03T17:38:13.483Z,100608.06
2018-07-03T17:40:53.476Z,100605.38
2018-07-03T17:43:34.109Z,100605.82
2018-07-03T17:46:07.468Z,100610.95
2018-07-03T17:48:36.702Z,100610.47
2018-07-03T17:51:05.851Z,100610.70
2018-07-03T17:53:34.779Z,100618.25
2018-07-03T17:56:03.946Z,100622.46
2018-07-03T17:58:33.776Z,100611.48
2018-07-03T18:01:02.793Z,100614.00
2018-07-03T18:03:32.212Z,100615.27
2018-07-03T18:06:02.094Z,100618.78
2018-07-03T18:08:31.044Z,100623.43
2018-07-03T18:11:00.760Z,100624.27
2018-07-03T18:13:29.727Z,100621.48
2018-07-03T18:15:58.695Z,100625.26
2018-07-03T18:18:29.305Z,100619.40
2018-07-03T18:20:58.709Z,100621.02
2018-07-03T18:23:27.730Z,100625.22
2018-07-03T18:25:56.952Z,100625.66
2018-07-03T18:28:26.139Z,100627.55
2018-07-03T18:30:55.349Z,100635.14
2018-07-03T18:33:24.422Z,100632.80
2018-07-03T18:35:53.535Z,100645.32
2018-07-03T18:38:22.609Z,100645.14
2018-07-03T18:40:52.267Z,100647.00
2018-07-03T18:43:21.425Z,100643.64
2018-07-03T18:45:50.827Z,100644.41
2018-07-03T18:48:19.891Z,100649.50
2018-07-03T18:50:49.049Z,100646.22
2018-07-03T18:53:18.015Z,100651.52
2018-07-03T18:55:47.002Z,100646.42
2018-07-03T18:58:16.338Z,100648.02
2018-07-03T19:00:45.479Z,100648.50
2018-07-03T19:03:14.731Z,100652.56
2018-07-03T19:05:44.038Z,100653.10
2018-07-03T19:08:14.193Z,100653.34
2018-07-03T19:10:44.106Z,100651.22
2018-07-03T19:13:13.356Z,100652.91
2018-07-03T19:15:42.755Z,100650.66
2018-07-03T19:18:12.634Z,100649.78
2018-07-03T19:20:41.573Z,100651.23
2018-07-03T19:23:10.648Z,100651.52
2018-07-03T19:25:40.039Z,100649.98
2018-07-03T19:28:09.248Z,100656.70
2018-07-03T19:30:38.337Z,100659.39
2018-07-03T19:33:07.567Z,100659.83
2018-07-03T19:35:36.712Z,100653.13
2018-07-03T19:38:06.201Z,100658.80
2018-07-03T19:40:35.140Z,100658.16
2018-07-03T19:43:31.428Z,100657.42
2018-07-03T19:46:01.363Z,100655.73
2018-07-03T19:48:30.444Z,100664.11
2018-07-03T19:50:59.475Z,100666.12
2018-07-03T19:53:28.415Z,100672.08
2018-07-03T19:55:59.723Z,100669.72
2018-07-03T19:58:28.700Z,100669.49
2018-07-03T20:00:57.835Z,100671.75
2018-07-03T20:03:26.753Z,100671.72
2018-07-03T20:05:55.856Z,100675.23
2018-07-03T20:08:24.841Z,100674.15
2018-07-03T20:10:53.900Z,100680.38
2018-07-03T20:13:22.886Z,100675.41
2018-07-03T20:15:52.158Z,100678.44
2018-07-03T20:18:21.444Z,100673.86
2018-07-03T20:20:50.569Z,100664.11
2018-07-03T20:23:20.023Z,100680.52
2018-07-03T20:25:49.200Z,100677.83
2018-07-03T20:28:18.777Z,100681.95
2018-07-03T20:30:47.763Z,100686.04
2018-07-03T20:33:16.893Z,100692.64
2018-07-03T20:35:46.126Z,100687.13
2018-07-03T20:38:15.500Z,100696.90
2018-07-03T20:40:57.399Z,100692.45
2018-07-03T20:43:29.350Z,100691.45
2018-07-03T20:45:58.613Z,100688.43
2018-07-03T20:48:27.978Z,100687.77
2018-07-03T20:50:57.519Z,100685.65
2018-07-03T20:53:27.167Z,100691.27
2018-07-03T20:55:57.477Z,100693.08
2018-07-03T20:58:26.517Z,100693.93
2018-07-03T21:00:55.466Z,100695.22
2018-07-03T21:03:26.210Z,100692.27
2018-07-03T21:05:55.538Z,100695.63
2018-07-03T21:08:24.970Z,100694.66
2018-07-03T21:10:54.053Z,100697.81
2018-07-03T21:13:23.348Z,100706.45
2018-07-03T21:15:54.010Z,100702.46
2018-07-03T21:18:23.315Z,100698.77
2018-07-03T21:20:52.306Z,100695.98
2018-07-03T21:23:21.431Z,100699.89
2018-07-03T21:25:50.659Z,100697.78
2018-07-03T21:28:19.758Z,100693.73
2018-07-03T21:30:49.287Z,100694.36
2018-07-03T21:33:19.751Z,100690.61
2018-07-03T21:35:48.870Z,100696.86
2018-07-03T21:38:18.376Z,100695.72
2018-07-03T21:40:47.937Z,100701.95
2018-07-03T21:43:17.198Z,100696.70
2018-07-03T21:45:46.405Z,100696.45
2018-07-03T21:48:15.465Z,100698.45
2018-07-03T21:50:44.583Z,100694.78
2018-07-03T21:53:13.694Z,100690.25
2018-07-03T21:55:42.779Z,100690.95
2018-07-03T21:58:12.178Z,100691.03
2018-07-03T22:00:42.584Z,100696.53
2018-07-03T22:03:12.451Z,100693.12
2018-07-03T22:05:42.170Z,100694.56
2018-07-03T22:08:11.304Z,100703.82
2018-07-03T22:10:40.536Z,100702.22
2018-07-03T22:13:09.823Z,100700.36
2018-07-03T22:15:39.183Z,100700.96
2018-07-03T22:18:08.623Z,100704.17
2018-07-03T22:20:37.715Z,100707.30
2018-07-03T22:23:07.220Z,100711.03
2018-07-03T22:25:36.226Z,100714.25
2018-07-03T22:28:05.326Z,100718.70
2018-07-03T22:30:34.413Z,100720.05
2018-07-03T22:33:03.498Z,100718.59
2018-07-03T22:35:32.759Z,100719.04
2018-07-03T22:38:02.003Z,100720.47
2018-07-03T22:40:31.103Z,100715.59
2018-07-03T22:43:00.383Z,100714.38
2018-07-03T22:45:29.610Z,100719.77
2018-07-03T22:47:58.707Z,100725.14
2018-07-03T22:50:27.676Z,100724.23
2018-07-03T22:52:56.930Z,100721.12
2018-07-03T22:55:25.986Z,100720.38
2018-07-03T22:57:55.035Z,100722.78
2018-07-03T23:00:24.164Z,100721.73
2018-07-03T23:02:53.134Z,100719.75
2018-07-03T23:05:22.342Z,100725.23
2018-07-03T23:07:51.464Z,100713.63
2018-07-03T23:10:20.561Z,100718.15
2018-07-03T23:12:49.490Z,100715.70
2018-07-03T23:15:18.884Z,100710.33
2018-07-03T23:17:48.974Z,100718.59
2018-07-03T23:20:18.048Z,100716.27
2018-07-03T23:22:47.167Z,100714.67
2018-07-03T23:25:16.958Z,100719.96
2018-07-03T23:27:46.149Z,100721.83
2018-07-03T23:30:15.361Z,100721.30
2018-07-03T23:32:44.675Z,100721.86
2018-07-03T23:35:15.538Z,100722.05
2018-07-03T23:37:44.675Z,100724.86
2018-07-03T23:40:13.789Z,100723.49
2018-07-03T23:42:43.055Z,100728.96
2018-07-03T23:45:13.103Z,100729.44
2018-07-03T23:47:53.703Z,100732.53
2018-07-03T23:50:33.878Z,100733.03
2018-07-03T23:53:13.942Z,100731.06
2018-07-03T23:55:54.171Z,100733.88
2018-07-03T23:58:34.240Z,100736.18
